Portada
METAR-TAF:

METAR-TAF

Aeropuertos :

Mafikeng, Sudáfrica

latitud: 25-47S, longitud: 025-32E, altitud: 1281 m

Observación

El informe se hizo hace 27 minutos, a las 07:00 UTC
Viento 18 kt del noreste
Temperatura 18°C
Humedad 64%
Presión 1025 hPa

METAR: FAMM 160700Z AUTO 04018KT //// // ////// 18/11 Q1025

Hora: 09:27 (07:27 UTC)

Pronóstico

El informe se hizo hace 4 horas y 27 minutos, a las 03:00 UTC
Pronóstico válido del 16 a las 04 UTC al 16 a las 15 UTC
Viento 14 kt del norte-noreste
Visibilidad 10 km o más
sin nubes por debajo de 1500 m y sin presencia de cumulonimbus.
Evolucionando progresivamente
del 16 a las 07 UTC al 16 a las 09 UTC
Nubes dispersas a una altura de 1000 ft
Evolucionando progresivamente
del 16 a las 09 UTC al 16 a las 11 UTC
Cielo nuboso a una altura de 2000 ft

TAF: FAMM 160300Z 1604/1615 03014KT CAVOK TX22/1613Z TN13/1604Z BECMG 1607/1609 SCT010 BECMG 1609/1611 BKN020

Observaciones y pronósticos meteorológicos de más de 4000 aeropuertos (mensajes METAR y TAF).

Los puntos amarillos y rojos representan las estaciones disponibles.

Ponga el ratón en el punto deseado para ver el nombre de la estación.

Haga clic para ver las observaciones y los pronósticos meteorológicos.

Para cambiar el mapa : haga clic en los botones verdes con una cruz de color negro para hacer un zoom, en el botón verde con un guión para alejar o en las flechas verdes para mapas adyacentes.


METAR-TAF: